AirNav   Air Wisconsin Up To $57,000 Bonus
 
 1112 users online  

80SD Comstock Field Airport
Aberdeen, South Dakota, USA

GOING TO ABERDEEN?


FAA INFORMATION EFFECTIVE 01 DECEMBER 2022

Location

FAA Identifier: 80SD
Lat/Long: 45-46-21.6300N 098-21-10.4200W
45-46.360500N 098-21.173667W
45.7726750,-98.3528944
(estimated)
Elevation: 1332 ft. / 406 m (estimated)
From city: 21 miles N of ABERDEEN, SD
Time zone: UTC -6 (UTC -5 during Daylight Saving Time)
Zip code: 57433

Airport Operations

Airport use: Private use. Permission required prior to landing
Activation date: 05/2014
Control tower: no
ARTCC: MINNEAPOLIS CENTER
FSS: HURON FLIGHT SERVICE STATION
Attendance: UNATNDD
Segmented circle: no

Airport Communications

WX ASOS at ABR (20 nm S): 125.875 (605-229-4512)

Nearby radio navigation aids

VOR radial/distance  VOR name  Freq  Var
ABRr355/21.3ABERDEEN VOR/DME113.0007E

Airport Services

Runway Information

Runway 18/36

Dimensions: 2670 x 50 ft. / 814 x 15 m
Surface: turf
RUNWAY 18  RUNWAY 36
Traffic pattern: leftleft

Airport Ownership and Management from official FAA records

Ownership: Privately-owned
Owner: ROBERT COMSTOCK
280 SOUTH 11TH STREET
WAHPETON, ND 58075
Phone 701-642-3207
Manager: ROBERT COMSTOCK
280 SOUTH 11TH STREET
WAHPETON, ND 58075
Phone 701-642-3207

Additional Remarks

FOR CD CTC MINNEAPOLIS ARTCC AT 651-463-5588.

Instrument Procedures

There are no published instrument procedures at 80SD.

Some nearby airports with instrument procedures:

4E7 - Ellendale Municipal Airport (16 nm NW)
KABR - Aberdeen Regional Airport (20 nm S)
KBTN - Britton Municipal Airport (26 nm E)
2D5 - Oakes Municipal Airport (27 nm NE)
51D - Edgeley Municipal Airport (38 nm NW)
 
Loc | Ops | Rwys | IFR | FBO | Links
Com | Nav | Svcs | Stats | Notes

Bismarck Aero Center
AirBoss

 
Aerial photo
WARNING: Photo may not be current or correct
Aerial photo of 80SD (Comstock Field Airport)
Photo by Bob Comstock
Photo taken 27-Aug-2014
looking northwest.

Do you have a better or more recent aerial photo of Comstock Field Airport that you would like to share? If so, please send us your photo.

 
Airport distance calculator
Flying to Comstock Field Airport? Find the distance to fly.

From to 80SD

Sunrise and sunset
Times for 01-Dec-2022
 Local
(UTC-6)
 Zulu
(UTC)
Morning civil twilight07:2113:21
Sunrise07:5513:55
Sunset16:5022:50
Evening civil twilight17:2423:24

Current date and time
Zulu (UTC)  02-Dec-2022 03:40:23
Local (UTC-6)  01-Dec-2022 21:40:23
 
METAR
KABR 
20nm S 
020253Z AUTO 17007KT 10SM CLR M01/M05 A2959 RMK AO2 SLP037 T10111050 56019
KBTN 
26nm E 
SuperAWOS
020315Z AUTO 15005KT 10SM CLR M01/M04 A2959 RMK AO2
K2D5 
27nm NE 
020315Z AUTO 12009KT 10SM SCT024 BKN033 BKN049 M06/M07 A2959 RMK AO2
TAF
KABR 
20nm S 
012212Z 0122/0218 18010KT P6SM SCT200 FM021000 19012KT P6SM BKN250 FM021100 35011G17KT P6SM BKN200 FM021500 34018G26KT P6SM OVC070 FM021700 34021G31KT P6SM OVC027
NOTAMs
Click for the latest NOTAMs
NOTAMs are issued by the DoD/FAA and will open in a separate window not controlled by AirNav.

 

 
 

Would you like to see your business listed on this page?

 If your business provides an interesting product or service to pilots, flight crews, aircraft, or users of the Comstock Field Airport, you should consider listing it here.  To start the listing process, click on the button below
 
Add a business
 

Other Pages about Comstock Field Airport

Update a link
 
Copyright © AirNav, LLC. All rights reserved. Privacy Policy  Contact